Time;durP1;ratioP1;P1;durP2;ratioP2;P2;SDS_P1;SDS_P2;PMS_P1;PMS_P2;Temp;Humidity;BMP_temperature;BMP_pressure;BME280_temperature;BME280_humidity;BME280_pressure;Samples;Min_cycle;Max_cycle;Signal;HPM_P1;HPM_P2
2024/01/14 00:00:19;;;;;;;17.42;11.65;;;2.60;99.90;;;;;;2103557;28;20034;-71
2024/01/14 00:01:20;;;;;;;16.40;11.15;;;2.60;99.90;;;;;;2095806;28;20024;-72
2024/01/14 00:02:20;;;;;;;18.48;11.88;;;2.60;99.90;;;;;;2097981;28;20051;-70
2024/01/14 00:03:22;;;;;;;17.13;11.40;;;2.50;99.90;;;;;;2103111;28;20033;-73
2024/01/14 00:04:23;;;;;;;17.60;11.65;;;2.50;99.90;;;;;;2098355;28;20025;-76
2024/01/14 00:05:23;;;;;;;16.83;11.38;;;2.50;99.90;;;;;;2099527;28;20632;-81
2024/01/14 00:06:24;;;;;;;17.13;11.30;;;2.50;99.90;;;;;;2098904;28;20012;-74
2024/01/14 00:07:24;;;;;;;17.55;11.50;;;2.50;99.90;;;;;;2096294;28;20055;-75
2024/01/14 00:08:25;;;;;;;15.68;11.05;;;2.50;99.90;;;;;;2095242;28;20036;-75
2024/01/14 00:09:25;;;;;;;17.42;11.52;;;2.50;99.90;;;;;;2097564;28;20451;-72
2024/01/14 00:10:26;;;;;;;18.20;11.85;;;2.50;99.90;;;;;;2090286;28;20036;-72
2024/01/14 00:11:27;;;;;;;16.80;11.48;;;2.50;99.90;;;;;;2086338;28;20033;-71
2024/01/14 00:12:28;;;;;;;16.10;11.02;;;2.50;99.90;;;;;;2098103;28;20032;-70
2024/01/14 00:13:28;;;;;;;16.38;11.25;;;2.50;99.90;;;;;;2095988;28;20039;-70
2024/01/14 00:14:29;;;;;;;16.98;11.35;;;2.50;99.90;;;;;;2096876;28;20024;-70
2024/01/14 00:15:29;;;;;;;15.40;10.60;;;2.50;99.90;;;;;;2098263;28;20445;-70
2024/01/14 00:16:37;;;;;;;16.65;11.02;;;2.50;99.90;;;;;;2094949;28;20478;-70
2024/01/14 00:17:37;;;;;;;15.70;10.48;;;2.50;99.90;;;;;;2097700;28;20043;-71
2024/01/14 00:18:38;;;;;;;16.75;11.15;;;2.60;99.90;;;;;;2105743;28;20420;-69
2024/01/14 00:19:38;;;;;;;16.73;10.85;;;2.60;99.90;;;;;;2097186;28;20573;-70
2024/01/14 00:20:39;;;;;;;15.82;10.38;;;2.60;99.90;;;;;;2097528;28;20039;-70
2024/01/14 00:21:39;;;;;;;16.05;10.60;;;2.60;99.90;;;;;;2094575;28;20040;-70
2024/01/14 00:22:40;;;;;;;15.13;10.43;;;2.60;99.90;;;;;;2093116;28;20056;-71
2024/01/14 00:23:40;;;;;;;16.48;10.98;;;2.60;99.90;;;;;;2103270;28;20064;-70
2024/01/14 00:24:42;;;;;;;15.65;10.60;;;2.60;99.90;;;;;;2100802;28;20063;-71
2024/01/14 00:25:42;;;;;;;15.52;10.43;;;2.60;99.90;;;;;;2100724;28;20129;-71
2024/01/14 00:26:43;;;;;;;15.10;10.40;;;2.60;99.90;;;;;;2088739;28;20024;-72
2024/01/14 00:27:43;;;;;;;15.77;10.45;;;2.60;99.90;;;;;;2096584;28;20056;-71
2024/01/14 00:28:44;;;;;;;14.52;10.27;;;2.50;99.90;;;;;;2097382;28;20422;-71
2024/01/14 00:29:45;;;;;;;15.13;10.70;;;2.60;99.90;;;;;;2095162;28;20028;-71
2024/01/14 00:30:46;;;;;;;15.90;10.48;;;2.60;99.90;;;;;;2103815;28;20035;-72
2024/01/14 00:31:46;;;;;;;14.77;10.38;;;2.60;99.90;;;;;;2099985;28;20035;-71
2024/01/14 00:32:47;;;;;;;15.55;10.48;;;2.60;99.90;;;;;;2096550;28;20032;-72
2024/01/14 00:33:49;;;;;;;15.43;10.18;;;2.60;99.90;;;;;;2100426;28;20044;-73
2024/01/14 00:34:50;;;;;;;14.60;10.27;;;2.60;99.90;;;;;;2104100;28;20382;-73
2024/01/14 00:35:50;;;;;;;14.75;10.38;;;2.60;99.90;;;;;;2097582;28;20031;-73
2024/01/14 00:36:51;;;;;;;14.52;10.25;;;2.60;99.90;;;;;;2093878;28;20043;-74
2024/01/14 00:37:51;;;;;;;14.77;10.15;;;2.60;99.90;;;;;;2078874;28;20029;-71
2024/01/14 00:38:52;;;;;;;14.52;10.30;;;2.60;99.90;;;;;;2084132;28;20029;-71
2024/01/14 00:39:52;;;;;;;13.82;9.88;;;2.60;99.90;;;;;;2093162;28;20068;-74
2024/01/14 00:40:53;;;;;;;14.60;10.27;;;2.60;99.90;;;;;;2094116;28;20024;-76
2024/01/14 00:41:53;;;;;;;15.48;10.43;;;2.60;99.90;;;;;;2095162;28;20050;-74
2024/01/14 00:42:55;;;;;;;15.32;10.45;;;2.60;99.90;;;;;;2094416;28;20083;-73
2024/01/14 00:43:55;;;;;;;14.25;10.00;;;2.60;99.90;;;;;;2096639;28;20024;-74
2024/01/14 00:44:56;;;;;;;13.73;9.70;;;2.60;99.90;;;;;;2097670;28;20164;-73
2024/01/14 00:45:56;;;;;;;14.88;9.85;;;2.60;99.90;;;;;;2099706;28;20024;-74
2024/01/14 00:46:57;;;;;;;13.85;9.43;;;2.70;99.90;;;;;;2097482;28;20082;-74
2024/01/14 00:47:57;;;;;;;12.55;9.32;;;2.70;99.90;;;;;;2097835;28;20371;-74
2024/01/14 00:48:58;;;;;;;13.60;9.40;;;2.70;99.90;;;;;;2095546;28;20035;-74
2024/01/14 00:49:59;;;;;;;15.25;9.93;;;2.70;99.90;;;;;;2094221;28;20016;-75
2024/01/14 00:50:59;;;;;;;16.25;10.27;;;2.70;99.90;;;;;;2094561;28;20078;-75
2024/01/14 00:52:00;;;;;;;13.85;9.63;;;2.70;99.90;;;;;;2097589;28;20044;-74
2024/01/14 00:53:00;;;;;;;13.15;9.15;;;2.70;99.90;;;;;;2097573;28;20528;-74
2024/01/14 00:54:01;;;;;;;13.38;9.68;;;2.70;99.90;;;;;;2099318;28;20032;-73
2024/01/14 00:55:01;;;;;;;13.10;9.05;;;2.70;99.90;;;;;;2094416;28;20047;-73
2024/01/14 00:56:02;;;;;;;14.68;9.68;;;2.70;99.90;;;;;;2095669;28;20048;-73
2024/01/14 00:57:04;;;;;;;13.18;9.15;;;2.70;99.90;;;;;;2103212;28;20031;-73
2024/01/14 00:58:04;;;;;;;12.88;8.98;;;2.70;99.90;;;;;;2096854;28;20717;-75
2024/01/14 00:59:05;;;;;;;13.57;9.70;;;2.70;99.90;;;;;;2084684;28;20560;-76
2024/01/14 01:00:09;;;;;;;14.50;9.60;;;2.70;99.90;;;;;;2103802;28;20024;-73
2024/01/14 01:01:10;;;;;;;13.60;9.55;;;2.70;99.90;;;;;;2105741;28;20046;-73
2024/01/14 01:02:11;;;;;;;13.15;9.48;;;2.70;99.90;;;;;;2099858;28;20206;-73
2024/01/14 01:03:11;;;;;;;13.15;9.23;;;2.70;99.90;;;;;;2095287;28;20040;-73
2024/01/14 01:04:12;;;;;;;14.07;9.35;;;2.70;99.90;;;;;;2101105;28;20044;-74
2024/01/14 01:05:13;;;;;;;13.23;9.25;;;2.70;99.90;;;;;;2103012;28;20024;-73
2024/01/14 01:06:13;;;;;;;13.60;9.52;;;2.70;99.90;;;;;;2098793;28;20021;-73
2024/01/14 01:07:14;;;;;;;13.70;9.05;;;2.70;99.90;;;;;;2099404;28;20031;-73
2024/01/14 01:08:14;;;;;;;13.43;9.45;;;2.70;99.90;;;;;;2103497;28;20490;-74
2024/01/14 01:09:15;;;;;;;14.05;9.82;;;2.70;99.90;;;;;;2097339;28;20099;-74
2024/01/14 01:10:16;;;;;;;13.30;9.25;;;2.70;99.90;;;;;;2097352;28;20039;-73
2024/01/14 01:11:17;;;;;;;13.32;9.07;;;2.70;99.90;;;;;;2095020;28;20033;-73
2024/01/14 01:12:17;;;;;;;13.20;9.15;;;2.70;99.90;;;;;;2093207;28;20056;-73
2024/01/14 01:13:18;;;;;;;12.82;8.85;;;2.70;99.90;;;;;;2103781;28;20422;-73
2024/01/14 01:14:19;;;;;;;13.82;9.43;;;2.70;99.90;;;;;;2100691;28;20063;-74
2024/01/14 01:15:19;;;;;;;13.45;9.02;;;2.70;99.90;;;;;;2097484;28;20039;-72
2024/01/14 01:16:20;;;;;;;11.68;8.52;;;2.70;99.90;;;;;;2100859;28;20047;-75
2024/01/14 01:17:20;;;;;;;12.73;9.30;;;2.70;99.90;;;;;;2101187;28;20385;-74
2024/01/14 01:18:21;;;;;;;13.25;9.23;;;2.70;99.90;;;;;;2102538;28;20519;-73
2024/01/14 01:19:22;;;;;;;13.43;9.48;;;2.70;99.90;;;;;;2100037;28;20034;-73
2024/01/14 01:20:22;;;;;;;12.82;9.32;;;2.70;99.90;;;;;;2087694;28;20040;-74
2024/01/14 01:21:23;;;;;;;13.15;9.20;;;2.70;99.90;;;;;;2096672;28;20017;-73
2024/01/14 01:22:23;;;;;;;13.30;9.10;;;2.70;99.90;;;;;;2104170;28;20019;-73
2024/01/14 01:23:24;;;;;;;13.48;8.95;;;2.70;99.90;;;;;;2085882;28;20408;-75
2024/01/14 01:24:24;;;;;;;12.88;9.02;;;2.70;99.90;;;;;;2079647;28;20025;-75
2024/01/14 01:25:25;;;;;;;11.85;8.60;;;2.70;99.90;;;;;;2096262;28;20394;-76
2024/01/14 01:26:26;;;;;;;14.45;9.35;;;2.80;99.90;;;;;;2093817;28;20024;-74
2024/01/14 01:27:29;;;;;;;14.88;9.73;;;2.80;99.90;;;;;;2096171;28;20032;-74
2024/01/14 01:28:29;;;;;;;13.77;9.68;;;2.80;99.90;;;;;;2098976;28;20028;-75
2024/01/14 01:29:30;;;;;;;13.00;9.30;;;2.70;99.90;;;;;;2093293;28;20024;-74
2024/01/14 01:30:30;;;;;;;12.70;9.07;;;2.70;99.90;;;;;;2099907;28;20082;-75
2024/01/14 01:31:31;;;;;;;15.15;9.48;;;2.70;99.90;;;;;;2098894;28;20032;-75
2024/01/14 01:32:32;;;;;;;14.63;9.45;;;2.70;99.90;;;;;;2094816;28;20020;-76
2024/01/14 01:33:32;;;;;;;12.65;8.88;;;2.70;99.90;;;;;;2100656;28;20032;-76
2024/01/14 01:34:33;;;;;;;15.23;10.02;;;2.70;99.90;;;;;;2101011;28;20522;-76
2024/01/14 01:35:33;;;;;;;13.70;9.38;;;2.70;99.90;;;;;;2102501;28;20131;-75
2024/01/14 01:36:34;;;;;;;13.52;9.35;;;2.70;99.90;;;;;;2098615;28;20024;-74
2024/01/14 01:37:35;;;;;;;12.80;9.35;;;2.70;99.90;;;;;;2100790;28;20514;-73
2024/01/14 01:38:36;;;;;;;13.45;9.52;;;2.70;99.90;;;;;;2096891;28;20028;-73
2024/01/14 01:39:37;;;;;;;13.40;9.48;;;2.70;99.90;;;;;;2101873;28;20039;-77
2024/01/14 01:40:37;;;;;;;13.25;9.60;;;2.70;99.90;;;;;;2099105;28;20036;-72
2024/01/14 01:41:38;;;;;;;13.60;9.15;;;2.70;99.90;;;;;;2095822;28;20399;-73
2024/01/14 01:42:38;;;;;;;14.02;9.50;;;2.70;99.90;;;;;;2097771;28;20814;-73
2024/01/14 01:43:39;;;;;;;14.70;9.88;;;2.70;99.90;;;;;;2101053;28;20038;-73
2024/01/14 01:44:39;;;;;;;13.98;9.63;;;2.70;99.90;;;;;;2096646;28;20113;-74
2024/01/14 01:45:40;;;;;;;15.32;9.68;;;2.70;99.90;;;;;;2098554;28;20040;-74
2024/01/14 01:46:41;;;;;;;13.25;9.32;;;2.70;99.90;;;;;;2102201;28;20135;-74
2024/01/14 01:47:42;;;;;;;13.10;9.50;;;2.70;99.90;;;;;;2090222;28;20045;-74
2024/01/14 01:48:43;;;;;;;14.02;9.88;;;2.60;99.90;;;;;;2099632;28;20028;-74
2024/01/14 01:49:44;;;;;;;13.65;9.77;;;2.60;99.90;;;;;;2103380;28;20028;-74
2024/01/14 01:50:46;;;;;;;13.75;9.40;;;2.70;99.90;;;;;;2103374;28;20039;-73
2024/01/14 01:51:48;;;;;;;14.10;9.93;;;2.70;99.90;;;;;;2101899;28;20396;-73
2024/01/14 01:52:49;;;;;;;14.38;10.27;;;2.70;99.90;;;;;;2100750;28;20059;-73
2024/01/14 01:53:49;;;;;;;13.52;9.82;;;2.70;99.90;;;;;;2098379;28;20023;-74
2024/01/14 01:54:51;;;;;;;12.75;9.30;;;2.60;99.90;;;;;;2099606;28;20035;-74
2024/01/14 01:55:53;;;;;;;14.57;10.25;;;2.60;99.90;;;;;;2099995;28;20036;-74
2024/01/14 01:56:55;;;;;;;14.63;9.75;;;2.70;99.90;;;;;;2094878;28;20055;-74
2024/01/14 01:57:55;;;;;;;13.90;10.02;;;2.60;99.90;;;;;;2092735;28;20047;-73
2024/01/14 01:58:56;;;;;;;14.18;9.75;;;2.60;99.90;;;;;;2092288;28;20030;-73
2024/01/14 01:59:57;;;;;;;13.98;9.57;;;2.60;99.90;;;;;;2099483;28;20069;-74
2024/01/14 02:00:58;;;;;;;13.48;9.38;;;2.60;99.90;;;;;;2093667;28;20047;-76
2024/01/14 02:02:00;;;;;;;14.15;9.77;;;2.70;99.90;;;;;;2098892;28;20040;-79
2024/01/14 02:03:05;;;;;;;14.30;10.07;;;2.70;99.90;;;;;;2098411;28;20117;-75
2024/01/14 02:04:07;;;;;;;13.20;9.23;;;2.70;99.90;;;;;;2096871;28;20031;-75
2024/01/14 02:05:08;;;;;;;13.82;9.85;;;2.60;99.90;;;;;;2099445;28;20036;-75
2024/01/14 02:06:11;;;;;;;13.38;9.73;;;2.60;99.90;;;;;;2100098;28;20047;-75
2024/01/14 02:07:12;;;;;;;13.43;9.60;;;2.60;99.90;;;;;;2094271;28;20047;-76
2024/01/14 02:08:12;;;;;;;14.80;9.60;;;2.60;99.90;;;;;;2094721;28;20060;-76
2024/01/14 02:09:13;;;;;;;14.00;9.63;;;2.60;99.90;;;;;;2101469;28;20025;-76
2024/01/14 02:10:14;;;;;;;13.82;9.82;;;2.60;99.90;;;;;;2101181;28;20107;-76
2024/01/14 02:11:15;;;;;;;15.00;10.02;;;2.60;99.90;;;;;;2102284;28;20394;-76
2024/01/14 02:12:15;;;;;;;14.30;9.80;;;2.60;99.90;;;;;;2102370;28;20131;-76
2024/01/14 02:13:16;;;;;;;15.57;9.73;;;2.60;99.90;;;;;;2106431;28;20144;-76
2024/01/14 02:14:16;;;;;;;14.25;10.15;;;2.60;99.90;;;;;;2105463;28;21290;-77
2024/01/14 02:15:17;;;;;;;14.75;10.18;;;2.60;99.90;;;;;;2096823;28;20572;-75
2024/01/14 02:16:19;;;;;;;16.00;10.65;;;2.60;99.90;;;;;;2106518;28;20541;-76
2024/01/14 02:17:20;;;;;;;14.65;10.15;;;2.60;99.90;;;;;;2097755;28;20371;-75
2024/01/14 02:18:20;;;;;;;15.63;10.57;;;2.60;99.90;;;;;;2102564;28;20169;-76
2024/01/14 02:19:21;;;;;;;13.95;10.00;;;2.60;99.90;;;;;;2104831;28;20065;-74
2024/01/14 02:20:22;;;;;;;15.00;10.80;;;2.60;99.90;;;;;;2105917;28;20056;-73
2024/01/14 02:21:25;;;;;;;13.93;10.07;;;2.60;99.90;;;;;;2104173;28;20024;-74
2024/01/14 02:22:29;;;;;;;15.73;10.38;;;2.60;99.90;;;;;;2104880;28;21066;-80
2024/01/14 02:23:34;;;;;;;14.25;10.18;;;2.60;99.90;;;;;;2106712;28;20512;-79
2024/01/14 02:24:36;;;;;;;14.52;10.30;;;2.60;99.90;;;;;;2104736;28;20050;-79
2024/01/14 02:25:36;;;;;;;14.25;10.30;;;2.60;99.90;;;;;;2100330;28;20059;-78
2024/01/14 02:26:37;;;;;;;15.00;10.57;;;2.60;99.90;;;;;;2103337;28;20031;-79
2024/01/14 02:27:38;;;;;;;15.52;10.90;;;2.60;99.90;;;;;;2102332;28;20116;-79
2024/01/14 02:28:39;;;;;;;15.07;10.52;;;2.60;99.90;;;;;;2104951;28;20027;-79
2024/01/14 02:29:40;;;;;;;15.60;10.88;;;2.60;99.90;;;;;;2103785;28;20122;-78
2024/01/14 02:30:41;;;;;;;15.23;10.60;;;2.60;99.90;;;;;;2104272;28;20012;-78
2024/01/14 02:31:41;;;;;;;16.60;10.68;;;2.60;99.90;;;;;;2106319;28;20040;-79
2024/01/14 02:32:42;;;;;;;15.52;11.05;;;2.60;99.90;;;;;;2095157;28;20482;-78
2024/01/14 02:33:43;;;;;;;15.02;10.43;;;2.60;99.90;;;;;;2102307;28;20130;-78
2024/01/14 02:34:44;;;;;;;14.73;10.25;;;2.60;99.90;;;;;;2106897;28;20031;-78
2024/01/14 02:35:44;;;;;;;15.73;10.57;;;2.60;99.90;;;;;;2104172;28;20601;-78
2024/01/14 02:36:45;;;;;;;15.23;10.68;;;2.60;99.90;;;;;;2103298;28;20030;-78
2024/01/14 02:37:47;;;;;;;15.13;10.70;;;2.60;99.90;;;;;;2105690;28;20094;-77
2024/01/14 02:38:47;;;;;;;15.90;10.82;;;2.60;99.90;;;;;;2099409;28;20036;-78
2024/01/14 02:39:48;;;;;;;15.68;10.55;;;2.60;99.90;;;;;;2102093;28;20039;-79
2024/01/14 02:40:49;;;;;;;14.65;10.25;;;2.60;99.90;;;;;;2095925;28;20047;-78
2024/01/14 02:41:49;;;;;;;15.30;10.38;;;2.60;99.90;;;;;;2096621;28;20516;-78
2024/01/14 02:42:50;;;;;;;15.10;10.52;;;2.60;99.90;;;;;;2105562;28;20034;-79
2024/01/14 02:43:50;;;;;;;15.25;10.45;;;2.60;99.90;;;;;;2106264;28;20055;-79
2024/01/14 02:44:51;;;;;;;16.10;10.52;;;2.60;99.90;;;;;;2096858;28;20058;-79
2024/01/14 02:45:52;;;;;;;14.00;9.98;;;2.60;99.90;;;;;;2097167;28;20036;-79
2024/01/14 02:46:52;;;;;;;15.02;10.18;;;2.60;99.90;;;;;;2103745;28;20016;-79
2024/01/14 02:47:53;;;;;;;16.10;10.85;;;2.60;99.90;;;;;;2102162;28;20035;-78
2024/01/14 02:48:53;;;;;;;14.30;10.05;;;2.60;99.90;;;;;;2103093;28;20031;-79
2024/01/14 02:49:54;;;;;;;15.25;10.60;;;2.60;99.90;;;;;;2106007;28;20016;-78
2024/01/14 02:50:54;;;;;;;15.43;10.48;;;2.60;99.90;;;;;;2098404;28;20028;-79
2024/01/14 02:51:55;;;;;;;17.15;10.70;;;2.60;99.90;;;;;;2088950;28;20025;-79
2024/01/14 02:52:55;;;;;;;14.73;10.05;;;2.70;99.90;;;;;;2096593;28;20032;-78
2024/01/14 02:53:56;;;;;;;15.10;10.43;;;2.60;99.90;;;;;;2097412;28;20058;-78
2024/01/14 02:54:56;;;;;;;15.95;10.48;;;2.60;99.90;;;;;;2095469;28;20036;-79
2024/01/14 02:55:57;;;;;;;14.32;10.20;;;2.60;99.90;;;;;;2103463;28;20019;-79
2024/01/14 02:56:57;;;;;;;15.23;10.40;;;2.60;99.90;;;;;;2103127;28;20505;-79
2024/01/14 02:57:58;;;;;;;14.80;10.50;;;2.60;99.90;;;;;;2086515;28;20070;-78
2024/01/14 02:58:58;;;;;;;14.02;10.20;;;2.60;99.90;;;;;;2097390;28;20028;-78
2024/01/14 02:59:59;;;;;;;15.57;10.60;;;2.60;99.90;;;;;;2096858;28;20044;-78
2024/01/14 03:01:00;;;;;;;16.08;11.00;;;2.60;99.90;;;;;;2088499;28;20037;-79
2024/01/14 03:02:01;;;;;;;15.80;11.18;;;2.60;99.90;;;;;;2096478;28;20641;-78
2024/01/14 03:03:01;;;;;;;15.13;10.55;;;2.50;99.90;;;;;;2096660;28;20029;-78
2024/01/14 03:04:02;;;;;;;15.00;10.82;;;2.50;99.90;;;;;;2096221;28;20498;-78
2024/01/14 03:05:03;;;;;;;16.70;11.40;;;2.50;99.90;;;;;;2102556;28;20028;-79
2024/01/14 03:06:04;;;;;;;14.90;10.50;;;2.50;99.90;;;;;;2102561;28;20020;-78
2024/01/14 03:07:05;;;;;;;16.27;11.30;;;2.40;99.90;;;;;;2104273;28;20646;-79
2024/01/14 03:08:05;;;;;;;16.25;11.27;;;2.40;99.90;;;;;;2102541;28;20036;-79
2024/01/14 03:09:06;;;;;;;16.70;11.35;;;2.40;99.90;;;;;;2098899;28;20028;-79
2024/01/14 03:10:07;;;;;;;17.35;11.38;;;2.30;99.90;;;;;;2100019;28;20028;-78
2024/01/14 03:11:07;;;;;;;17.80;12.02;;;2.30;99.90;;;;;;2095691;28;20044;-78
2024/01/14 03:12:08;;;;;;;16.35;10.98;;;2.30;99.90;;;;;;2090759;28;20029;-78
2024/01/14 03:13:09;;;;;;;16.30;11.30;;;2.30;99.90;;;;;;2079155;28;20450;-79
2024/01/14 03:14:09;;;;;;;18.33;11.68;;;2.30;99.90;;;;;;2083977;28;20099;-80
2024/01/14 03:15:10;;;;;;;17.98;11.20;;;2.30;99.90;;;;;;2097170;28;20039;-79
2024/01/14 03:16:10;;;;;;;17.98;11.40;;;2.30;99.90;;;;;;2097807;28;20669;-80
2024/01/14 03:17:11;;;;;;;15.93;11.27;;;2.30;99.90;;;;;;2100600;28;20116;-80
2024/01/14 03:18:12;;;;;;;16.92;11.63;;;2.30;99.90;;;;;;2091523;28;20033;-78
2024/01/14 03:19:12;;;;;;;16.30;11.45;;;2.30;99.90;;;;;;2087812;28;20041;-79
2024/01/14 03:20:13;;;;;;;17.52;11.77;;;2.30;99.90;;;;;;2093640;28;20031;-78
2024/01/14 03:21:18;;;;;;;16.08;11.13;;;2.40;99.90;;;;;;2078741;28;20040;-78
2024/01/14 03:22:19;;;;;;;17.45;11.65;;;2.30;99.90;;;;;;2094403;28;20433;-78
2024/01/14 03:23:19;;;;;;;18.05;11.43;;;2.30;99.90;;;;;;2097070;28;20095;-79
2024/01/14 03:24:20;;;;;;;16.35;11.07;;;2.30;99.90;;;;;;2083441;28;20033;-80
2024/01/14 03:25:20;;;;;;;16.98;11.98;;;2.30;99.90;;;;;;2083777;28;20047;-79
2024/01/14 03:26:22;;;;;;;17.35;11.57;;;2.30;99.90;;;;;;2096719;28;20835;-79
2024/01/14 03:27:22;;;;;;;18.40;12.13;;;2.30;99.90;;;;;;2098076;28;20461;-81
2024/01/14 03:28:23;;;;;;;17.88;11.95;;;2.30;99.90;;;;;;2100654;28;20021;-79
2024/01/14 03:29:23;;;;;;;18.50;11.75;;;2.20;99.90;;;;;;2100204;28;20028;-80
2024/01/14 03:30:24;;;;;;;17.88;11.90;;;2.30;99.90;;;;;;2104202;28;20053;-79
2024/01/14 03:31:25;;;;;;;18.70;12.00;;;2.20;99.90;;;;;;2083738;28;20493;-79
2024/01/14 03:32:25;;;;;;;16.50;11.45;;;2.30;99.90;;;;;;2085514;28;20534;-79
2024/01/14 03:33:26;;;;;;;16.58;11.25;;;2.30;99.90;;;;;;2083274;28;20533;-78
2024/01/14 03:34:27;;;;;;;18.73;11.82;;;2.30;99.90;;;;;;2099676;28;20028;-78
2024/01/14 03:35:27;;;;;;;17.33;11.45;;;2.30;99.90;;;;;;2104470;28;20038;-79
2024/01/14 03:36:28;;;;;;;16.50;10.95;;;2.30;99.90;;;;;;2092280;28;20300;-80
2024/01/14 03:37:29;;;;;;;16.70;11.20;;;2.30;99.90;;;;;;2107594;28;20023;-79
2024/01/14 03:38:29;;;;;;;15.98;10.98;;;2.30;99.90;;;;;;2100004;28;20084;-80
2024/01/14 03:39:30;;;;;;;16.08;10.70;;;2.40;99.90;;;;;;2092254;28;20036;-79
2024/01/14 03:40:30;;;;;;;17.80;11.70;;;2.30;99.90;;;;;;2098699;28;20021;-79
2024/01/14 03:41:31;;;;;;;16.52;10.52;;;2.30;99.90;;;;;;2091237;28;20024;-80
2024/01/14 03:42:31;;;;;;;16.35;11.07;;;2.30;99.90;;;;;;2084950;28;20020;-80
2024/01/14 03:43:32;;;;;;;16.65;10.80;;;2.30;99.90;;;;;;2098467;28;20025;-78
2024/01/14 03:44:32;;;;;;;17.42;11.20;;;2.30;99.90;;;;;;2092414;28;20036;-78
2024/01/14 03:45:33;;;;;;;17.10;11.07;;;2.30;99.90;;;;;;2095483;28;20067;-79
2024/01/14 03:46:34;;;;;;;16.92;11.10;;;2.40;99.90;;;;;;2099440;28;20437;-78
2024/01/14 03:47:34;;;;;;;16.58;10.93;;;2.40;99.90;;;;;;2092911;28;20441;-78
2024/01/14 03:48:36;;;;;;;16.65;10.82;;;2.40;99.90;;;;;;2099600;28;20457;-78
2024/01/14 03:49:36;;;;;;;15.95;10.70;;;2.50;99.90;;;;;;2098572;28;20032;-78
2024/01/14 03:50:37;;;;;;;16.55;10.95;;;2.50;99.90;;;;;;2106001;28;20080;-79
2024/01/14 03:51:37;;;;;;;15.38;10.38;;;2.50;99.90;;;;;;2102428;28;20103;-79
2024/01/14 03:52:38;;;;;;;16.38;10.77;;;2.50;99.90;;;;;;2099787;28;20029;-79
2024/01/14 03:53:39;;;;;;;17.23;11.23;;;2.50;99.90;;;;;;2093357;28;20032;-79
2024/01/14 03:54:39;;;;;;;15.65;10.45;;;2.50;99.90;;;;;;2093321;28;20033;-78
2024/01/14 03:55:40;;;;;;;16.42;11.38;;;2.50;99.90;;;;;;2100959;28;20032;-78
2024/01/14 03:56:40;;;;;;;15.85;10.57;;;2.50;99.90;;;;;;2102808;28;20028;-79
2024/01/14 03:57:41;;;;;;;17.67;11.00;;;2.50;99.90;;;;;;2090351;28;20067;-77
2024/01/14 03:58:41;;;;;;;15.88;10.45;;;2.50;99.90;;;;;;2092713;28;20512;-80
2024/01/14 03:59:42;;;;;;;17.02;10.90;;;2.50;99.90;;;;;;2096824;28;20040;-78
2024/01/14 04:00:42;;;;;;;17.38;11.18;;;2.50;99.90;;;;;;2104591;28;20031;-78
2024/01/14 04:01:43;;;;;;;18.85;11.90;;;2.50;99.90;;;;;;2101453;28;20529;-79
2024/01/14 04:02:45;;;;;;;16.67;10.98;;;2.40;99.90;;;;;;2096771;28;20039;-79
2024/01/14 04:03:45;;;;;;;16.98;11.25;;;2.50;99.90;;;;;;2098394;28;20380;-78
2024/01/14 04:04:46;;;;;;;16.05;10.85;;;2.50;99.90;;;;;;2099444;28;20047;-78
2024/01/14 04:05:46;;;;;;;15.60;11.07;;;2.40;99.90;;;;;;2095770;28;20040;-79
2024/01/14 04:06:47;;;;;;;16.85;11.02;;;2.40;99.90;;;;;;2087358;28;20157;-79
2024/01/14 04:07:49;;;;;;;17.98;11.20;;;2.40;99.90;;;;;;2095893;28;20063;-78
2024/01/14 04:08:49;;;;;;;17.30;10.77;;;2.40;99.90;;;;;;2103586;28;20039;-78
2024/01/14 04:09:50;;;;;;;16.92;11.13;;;2.40;99.90;;;;;;2097328;28;20390;-78
2024/01/14 04:10:51;;;;;;;17.02;11.20;;;2.40;99.90;;;;;;2097317;28;20021;-78
2024/01/14 04:11:51;;;;;;;17.85;11.32;;;2.40;99.90;;;;;;2101218;28;20019;-78
2024/01/14 04:12:52;;;;;;;17.15;11.43;;;2.40;99.90;;;;;;2096634;28;20475;-78
2024/01/14 04:13:52;;;;;;;17.48;11.60;;;2.40;99.90;;;;;;2088504;28;20448;-78
2024/01/14 04:14:53;;;;;;;17.67;11.25;;;2.40;99.90;;;;;;2095412;28;20430;-78
2024/01/14 04:15:56;;;;;;;18.20;12.25;;;2.40;99.90;;;;;;2097263;28;20446;-78
2024/01/14 04:16:57;;;;;;;17.45;11.63;;;2.40;99.90;;;;;;2101362;28;20035;-77
2024/01/14 04:17:57;;;;;;;17.73;11.70;;;2.40;99.90;;;;;;2094711;28;20027;-78
2024/01/14 04:18:58;;;;;;;18.17;11.68;;;2.40;99.90;;;;;;2094328;28;20028;-79
2024/01/14 04:20:00;;;;;;;17.60;11.52;;;2.40;99.90;;;;;;2093713;28;20526;-79
2024/01/14 04:21:00;;;;;;;18.83;12.40;;;2.40;99.90;;;;;;2101385;28;20052;-78
2024/01/14 04:22:01;;;;;;;17.70;11.50;;;2.40;99.90;;;;;;2100283;28;20630;-78
2024/01/14 04:23:01;;;;;;;19.52;11.85;;;2.30;99.90;;;;;;2097705;28;20043;-78
2024/01/14 04:24:02;;;;;;;20.05;12.52;;;2.30;99.90;;;;;;2099207;28;20039;-77
2024/01/14 04:25:03;;;;;;;18.45;11.75;;;2.30;99.90;;;;;;2101082;28;20037;-77
2024/01/14 04:26:06;;;;;;;20.35;12.43;;;2.30;99.90;;;;;;2092801;28;20029;-79
2024/01/14 04:27:07;;;;;;;20.75;12.75;;;2.30;99.90;;;;;;2084634;28;20027;-78
2024/01/14 04:28:07;;;;;;;20.30;12.93;;;2.20;99.90;;;;;;2092673;28;20055;-79
2024/01/14 04:29:08;;;;;;;20.15;13.38;;;2.20;99.90;;;;;;2100646;28;20037;-78
2024/01/14 04:30:09;;;;;;;21.88;13.70;;;2.20;99.90;;;;;;2093410;28;20028;-78
2024/01/14 04:31:10;;;;;;;21.25;13.40;;;2.10;99.90;;;;;;2104279;28;20020;-78
2024/01/14 04:32:11;;;;;;;20.85;13.20;;;2.10;99.90;;;;;;2096678;28;20024;-79
2024/01/14 04:33:12;;;;;;;20.33;12.88;;;2.10;99.90;;;;;;2096103;28;20115;-78
2024/01/14 04:34:13;;;;;;;22.23;13.18;;;2.10;99.90;;;;;;2093499;28;20032;-78
2024/01/14 04:35:14;;;;;;;21.33;13.18;;;2.10;99.90;;;;;;2100790;28;20188;-77
2024/01/14 04:36:15;;;;;;;19.98;12.90;;;2.10;99.90;;;;;;2097341;28;20062;-79
2024/01/14 04:37:15;;;;;;;18.95;12.27;;;2.20;99.90;;;;;;2097142;28;20156;-78
2024/01/14 04:38:16;;;;;;;19.48;12.70;;;2.10;99.90;;;;;;2099633;28;20028;-78
2024/01/14 04:39:16;;;;;;;21.08;13.00;;;2.20;99.90;;;;;;2100488;28;20023;-78
2024/01/14 04:40:17;;;;;;;19.73;12.90;;;2.20;99.90;;;;;;2094096;28;20047;-78
2024/01/14 04:41:18;;;;;;;20.88;12.32;;;2.10;99.90;;;;;;2101677;28;20025;-78
2024/01/14 04:42:19;;;;;;;19.33;12.68;;;2.20;99.90;;;;;;2105228;28;20474;-77
2024/01/14 04:43:19;;;;;;;18.70;12.15;;;2.10;99.90;;;;;;2100636;28;20047;-78
2024/01/14 04:44:20;;;;;;;20.50;13.15;;;2.20;99.90;;;;;;2085047;28;20040;-78
2024/01/14 04:45:21;;;;;;;18.83;12.65;;;2.20;99.90;;;;;;2099089;28;20023;-78
2024/01/14 04:46:21;;;;;;;21.60;13.70;;;2.20;99.90;;;;;;2104714;28;20038;-78
2024/01/14 04:47:22;;;;;;;21.15;13.23;;;2.20;99.90;;;;;;2094705;28;20024;-78
2024/01/14 04:48:22;;;;;;;22.63;13.73;;;2.20;99.90;;;;;;2100103;28;20064;-78
2024/01/14 04:49:23;;;;;;;22.85;13.93;;;2.20;99.90;;;;;;2101446;28;20627;-78
2024/01/14 04:50:23;;;;;;;22.95;13.73;;;2.20;99.90;;;;;;2099355;28;20108;-78
2024/01/14 04:51:24;;;;;;;22.50;13.55;;;2.10;99.90;;;;;;2102559;28;20028;-78
2024/01/14 04:52:24;;;;;;;21.45;13.82;;;2.10;99.90;;;;;;2106022;28;20023;-78
2024/01/14 04:53:25;;;;;;;21.70;14.05;;;2.10;99.90;;;;;;2095165;28;20017;-78
2024/01/14 04:54:25;;;;;;;21.85;13.48;;;2.10;99.90;;;;;;2098535;28;20029;-78
2024/01/14 04:55:26;;;;;;;23.27;14.43;;;2.10;99.90;;;;;;2103671;28;20153;-79
2024/01/14 04:56:26;;;;;;;23.35;13.85;;;2.10;99.90;;;;;;2101583;28;20074;-78
2024/01/14 04:57:27;;;;;;;21.35;13.73;;;2.20;99.90;;;;;;2098412;28;20059;-79
2024/01/14 04:58:27;;;;;;;22.45;14.27;;;2.20;99.90;;;;;;2101144;28;20033;-79
2024/01/14 04:59:28;;;;;;;21.10;13.50;;;2.20;99.90;;;;;;2102777;28;20068;-78
2024/01/14 05:00:29;;;;;;;22.63;14.30;;;2.20;99.90;;;;;;2100385;28;20175;-79
2024/01/14 05:01:29;;;;;;;21.23;13.68;;;2.20;99.90;;;;;;2099610;28;20040;-79
2024/01/14 05:02:30;;;;;;;22.88;14.27;;;2.20;99.90;;;;;;2099210;28;20044;-79
2024/01/14 05:03:30;;;;;;;23.08;14.57;;;2.10;99.90;;;;;;2101379;28;20116;-79
2024/01/14 05:04:31;;;;;;;21.98;14.07;;;2.10;99.90;;;;;;2093309;28;20052;-78
2024/01/14 05:05:31;;;;;;;23.73;14.68;;;2.20;99.90;;;;;;2093375;28;20481;-78
2024/01/14 05:06:34;;;;;;;23.10;14.57;;;2.20;99.90;;;;;;2095459;28;20474;-79
2024/01/14 05:07:35;;;;;;;23.50;14.63;;;2.20;99.90;;;;;;2096960;28;20115;-77
2024/01/14 05:08:37;;;;;;;22.50;13.88;;;2.20;99.90;;;;;;2101075;28;20035;-78
2024/01/14 05:09:38;;;;;;;22.80;13.98;;;2.20;99.90;;;;;;2095993;28;20020;-78
2024/01/14 05:10:39;;;;;;;21.88;14.13;;;2.20;99.90;;;;;;2093464;28;20726;-78
2024/01/14 05:11:39;;;;;;;21.83;13.52;;;2.20;99.90;;;;;;2098243;28;20487;-78
2024/01/14 05:12:40;;;;;;;21.27;13.35;;;2.30;99.90;;;;;;2096544;28;20806;-77
2024/01/14 05:13:40;;;;;;;21.60;13.63;;;2.30;99.90;;;;;;2094620;28;20036;-78